General Aviation Weather

Text Reports

Enter one or more of the following location identifiers separated by a space:

Zip Code, Four-Character ICAO or Three-Character IATA airport codes.

METAR - Aviation Routine Weather Report
KMLF - Milford, Utah
Updated at 7:52 AM GMT on August 28, 2015 (1:52 AM MDT):
METAR KMLF 280752Z AUTO 24006KT 10SM CLR 16/08 A3022 RMK AO2 SLP167 T01610078
TAF - Terminal Area Forecast
KMLF - Milford, Utah
Updated at 7:52 AM GMT on August 28, 2015 (1:52 AM MDT):
No TAF is currently available for this location.
Decoded:
No decoded TAF is available.
PIREP - Pilot Weather Report
KMLF - Milford, Utah
Updated at 7:52 AM GMT on August 28, 2015 (1:52 AM MDT):
No PIREP is currently available for this location.
AIRMET - Airmens Meteorological Information
KMLF - Milford, Utah
Updated at 7:52 AM GMT on August 28, 2015 (1:52 AM MDT):
No AIRMET is currently available for this location.
SIGMET - Significant Meteorological Information
KMLF - Milford, Utah
Updated at 7:52 AM GMT on August 28, 2015 (1:52 AM MDT):
No SIGMET is currently available for this location.
NOTAM - Notice to Airmen
KMLF - Milford, Utah
Updated at 7:52 AM GMT on August 28, 2015 (1:52 AM MDT):
No NOTAM is currently available for this location.
Forecast Area
KMLF - Milford, Utah
Updated at 7:52 AM GMT on August 28, 2015 (1:52 AM MDT):
No NOTAM is currently available for this location.
Aviation Weather Maps